createdAt,value
2022-08-14T00:00:56.853Z,2.50
2022-08-14T00:04:02.739Z,2.80
2022-08-14T00:07:29.947Z,2.65
2022-08-14T00:10:52.614Z,2.28
2022-08-14T00:13:58.479Z,2.30
2022-08-14T00:17:03.696Z,2.20
2022-08-14T00:20:12.892Z,2.08
2022-08-14T00:23:22.061Z,2.10
2022-08-14T00:26:29.685Z,2.30
2022-08-14T00:29:40.564Z,2.13
2022-08-14T00:32:56.061Z,2.40
2022-08-14T00:36:35.131Z,2.33
2022-08-14T00:39:28.508Z,2.30
2022-08-14T00:42:55.576Z,2.20
2022-08-14T00:46:05.324Z,2.33
2022-08-14T00:49:14.750Z,2.25
2022-08-14T00:52:20.279Z,2.70
2022-08-14T00:55:27.882Z,2.40
2022-08-14T00:58:35.846Z,1.80
2022-08-14T01:01:50.730Z,2.17
2022-08-14T01:05:00.843Z,2.45
2022-08-14T01:08:06.851Z,2.33
2022-08-14T01:11:35.377Z,2.35
2022-08-14T01:14:41.246Z,2.53
2022-08-14T01:18:04.676Z,2.30
2022-08-14T01:21:15.095Z,2.60
2022-08-14T01:24:30.646Z,2.45
2022-08-14T01:27:53.820Z,2.30
2022-08-14T01:31:05.965Z,3.20
2022-08-14T01:35:17.243Z,3.08
2022-08-14T01:37:44.166Z,2.92
2022-08-14T01:40:52.004Z,3.17
2022-08-14T01:44:02.874Z,2.80
2022-08-14T01:47:21.324Z,2.85
2022-08-14T01:50:27.818Z,2.45
2022-08-14T01:53:35.923Z,2.90
2022-08-14T01:56:44.933Z,2.70
2022-08-14T01:59:50.839Z,2.85
2022-08-14T02:02:58.382Z,3.20
2022-08-14T02:06:32.182Z,3.65
2022-08-14T02:09:35.270Z,3.40
2022-08-14T02:12:44.842Z,4.00
2022-08-14T02:16:00.350Z,3.42
2022-08-14T02:19:31.792Z,3.20
2022-08-14T02:22:47.292Z,3.15
2022-08-14T02:25:54.735Z,2.80
2022-08-14T02:29:04.902Z,2.80
2022-08-14T02:32:11.277Z,2.78
2022-08-14T02:35:40.692Z,2.97
2022-08-14T02:38:46.053Z,2.50
2022-08-14T02:41:57.972Z,2.72
2022-08-14T02:45:06.218Z,2.70
2022-08-14T02:49:01.856Z,2.97
2022-08-14T02:51:41.298Z,2.88
2022-08-14T02:54:46.930Z,2.70
2022-08-14T02:57:58.245Z,2.97
2022-08-14T03:01:11.601Z,2.60
2022-08-14T03:04:17.705Z,2.50
2022-08-14T03:07:25.960Z,2.63
2022-08-14T03:10:33.337Z,2.42
2022-08-14T03:13:40.980Z,2.58
2022-08-14T03:16:49.512Z,3.00
2022-08-14T03:19:56.208Z,2.60
2022-08-14T03:23:04.448Z,3.10
2022-08-14T03:26:13.198Z,2.67
2022-08-14T03:29:24.696Z,2.97
2022-08-14T03:32:34.007Z,2.47
2022-08-14T03:36:05.378Z,2.70
2022-08-14T03:39:14.959Z,2.70
2022-08-14T03:42:36.109Z,2.72
2022-08-14T03:45:48.517Z,2.50
2022-08-14T03:48:55.934Z,2.90
2022-08-14T03:52:07.596Z,2.65
2022-08-14T03:55:23.099Z,2.70
2022-08-14T03:58:35.176Z,2.58
2022-08-14T04:01:45.814Z,2.53
2022-08-14T04:05:12.017Z,3.08
2022-08-14T04:08:29.581Z,2.40
2022-08-14T04:11:38.399Z,2.72
2022-08-14T04:14:43.742Z,2.58
2022-08-14T04:17:51.149Z,2.58
2022-08-14T04:21:02.478Z,2.70
2022-08-14T04:24:10.312Z,2.50
2022-08-14T04:27:19.070Z,2.50
2022-08-14T04:30:32.799Z,2.30
2022-08-14T04:33:38.890Z,2.58
2022-08-14T04:36:59.596Z,2.20
2022-08-14T04:40:23.275Z,2.28
2022-08-14T04:43:40.108Z,2.38
2022-08-14T04:47:06.502Z,2.28
2022-08-14T04:50:11.926Z,2.20
2022-08-14T04:53:23.282Z,2.08
2022-08-14T04:56:34.291Z,2.17
2022-08-14T04:59:39.789Z,1.90
2022-08-14T05:02:48.035Z,2.05
2022-08-14T05:05:55.364Z,2.00
2022-08-14T05:09:02.253Z,2.10
2022-08-14T05:13:10.434Z,2.30
2022-08-14T05:15:36.332Z,1.90
2022-08-14T05:19:17.996Z,2.03
2022-08-14T05:22:17.212Z,2.08
2022-08-14T05:25:25.657Z,2.00
2022-08-14T05:28:37.247Z,2.00
2022-08-14T05:31:42.395Z,1.90
2022-08-14T05:34:47.914Z,2.00
2022-08-14T05:37:53.826Z,2.03
2022-08-14T05:41:02.712Z,1.92
2022-08-14T05:44:12.910Z,1.98
2022-08-14T05:47:18.570Z,1.70
2022-08-14T05:50:24.394Z,2.00
2022-08-14T05:53:33.609Z,1.65
2022-08-14T05:56:40.913Z,1.88
2022-08-14T05:59:46.730Z,1.67
2022-08-14T06:02:52.010Z,1.83
2022-08-14T06:05:57.809Z,2.08
2022-08-14T06:09:02.841Z,1.88
2022-08-14T06:12:10.788Z,1.70
2022-08-14T06:15:17.279Z,1.83
2022-08-14T06:18:25.878Z,1.85
2022-08-14T06:21:37.160Z,1.60
2022-08-14T06:24:44.011Z,1.90
2022-08-14T06:27:51.373Z,1.80
2022-08-14T06:30:57.136Z,1.90
2022-08-14T06:35:03.241Z,2.08
2022-08-14T06:37:28.650Z,1.80
2022-08-14T06:40:36.519Z,1.70
2022-08-14T06:43:46.874Z,1.90
2022-08-14T06:46:54.251Z,1.80
2022-08-14T06:50:00.443Z,1.63
2022-08-14T06:53:05.557Z,2.08
2022-08-14T06:56:13.279Z,1.70
2022-08-14T06:59:20.391Z,1.90
2022-08-14T07:02:45.005Z,1.63
2022-08-14T07:05:57.687Z,1.67
2022-08-14T07:09:04.901Z,1.75
2022-08-14T07:12:54.314Z,1.88
2022-08-14T07:15:42.493Z,1.70
2022-08-14T07:18:50.892Z,1.83
2022-08-14T07:21:56.708Z,1.83
2022-08-14T07:25:01.766Z,1.70
2022-08-14T07:28:12.769Z,1.50
2022-08-14T07:31:26.495Z,1.65
2022-08-14T07:34:40.873Z,1.55
2022-08-14T07:37:49.945Z,1.65
2022-08-14T07:40:59.711Z,1.50
2022-08-14T07:44:32.659Z,1.50
2022-08-14T07:47:32.337Z,1.48
2022-08-14T07:50:39.399Z,1.63
2022-08-14T07:53:44.531Z,1.50
2022-08-14T07:56:55.067Z,1.50
2022-08-14T08:00:01.778Z,1.70
2022-08-14T08:03:18.954Z,1.70
2022-08-14T08:06:29.559Z,1.45
2022-08-14T08:09:36.177Z,1.70
2022-08-14T08:12:42.306Z,1.63
2022-08-14T08:15:50.051Z,1.70
2022-08-14T08:19:02.835Z,1.58
2022-08-14T08:22:11.806Z,1.60
2022-08-14T08:25:18.098Z,1.33
2022-08-14T08:28:27.131Z,1.30
2022-08-14T08:31:35.114Z,1.50
2022-08-14T08:34:49.584Z,1.45
2022-08-14T08:38:01.794Z,1.40
2022-08-14T08:41:19.321Z,1.48
2022-08-14T08:44:34.206Z,1.48
2022-08-14T08:47:41.300Z,1.40
2022-08-14T08:50:48.055Z,1.40
2022-08-14T08:53:59.406Z,1.50
2022-08-14T08:57:12.850Z,1.40
2022-08-14T09:00:25.711Z,1.20
2022-08-14T09:03:32.375Z,1.42
2022-08-14T09:07:00.096Z,1.30
2022-08-14T09:10:17.462Z,1.40
2022-08-14T09:13:27.876Z,1.30
2022-08-14T09:16:36.106Z,1.30
2022-08-14T09:19:41.886Z,1.33
2022-08-14T09:22:50.026Z,1.27
2022-08-14T09:26:00.958Z,1.23
2022-08-14T09:29:07.425Z,1.50
2022-08-14T09:33:09.366Z,1.23
2022-08-14T09:36:27.127Z,1.40
2022-08-14T09:39:55.631Z,1.33
2022-08-14T09:43:13.136Z,1.50
2022-08-14T09:46:21.249Z,1.40
2022-08-14T09:49:39.805Z,1.48
2022-08-14T09:52:55.047Z,1.30
2022-08-14T09:56:04.846Z,1.30
2022-08-14T09:59:22.333Z,1.23
2022-08-14T10:02:31.295Z,1.58
2022-08-14T10:05:39.159Z,1.40
2022-08-14T10:08:50.878Z,1.40
2022-08-14T10:12:00.082Z,1.30
2022-08-14T10:15:18.171Z,1.40
2022-08-14T10:18:28.875Z,2.25
2022-08-14T10:21:38.798Z,1.48
2022-08-14T10:25:00.815Z,1.40
2022-08-14T10:28:08.718Z,1.50
2022-08-14T10:31:43.311Z,1.55
2022-08-14T10:34:52.538Z,1.45
2022-08-14T10:38:07.368Z,1.27
2022-08-14T10:41:16.694Z,1.25
2022-08-14T10:44:29.847Z,1.40
2022-08-14T10:48:09.560Z,1.20
2022-08-14T10:51:08.479Z,1.40
2022-08-14T10:54:16.998Z,1.40
2022-08-14T10:57:51.331Z,1.40
2022-08-14T11:01:01.238Z,1.30
2022-08-14T11:04:08.541Z,1.65
2022-08-14T11:07:21.224Z,1.40
2022-08-14T11:10:28.819Z,1.25
2022-08-14T11:13:34.577Z,1.25
2022-08-14T11:16:41.757Z,1.20
2022-08-14T11:20:01.737Z,1.00
2022-08-14T11:23:09.853Z,1.15
2022-08-14T11:26:19.050Z,1.00
2022-08-14T11:29:26.793Z,1.13
2022-08-14T11:32:34.218Z,1.13
2022-08-14T11:35:47.525Z,0.95
2022-08-14T11:38:54.043Z,1.20
2022-08-14T11:42:00.421Z,1.02
2022-08-14T11:45:29.844Z,1.30
2022-08-14T11:49:04.265Z,1.20
2022-08-14T11:52:12.842Z,1.15
2022-08-14T11:55:25.077Z,1.33
2022-08-14T11:58:34.110Z,1.23
2022-08-14T12:01:41.333Z,1.52
2022-08-14T12:04:52.708Z,1.33
2022-08-14T12:08:02.846Z,1.23
2022-08-14T12:11:14.971Z,1.05
2022-08-14T12:14:29.317Z,1.27
2022-08-14T12:17:49.521Z,1.50
2022-08-14T12:20:59.327Z,1.80
2022-08-14T12:24:08.365Z,1.40
2022-08-14T12:27:16.929Z,1.40
2022-08-14T12:30:39.462Z,1.40
2022-08-14T12:33:57.675Z,1.50
2022-08-14T12:37:09.585Z,1.40
2022-08-14T12:40:20.611Z,1.85
2022-08-14T12:43:26.252Z,1.45
2022-08-14T12:46:37.639Z,1.70
2022-08-14T12:49:52.589Z,1.70
2022-08-14T12:53:13.924Z,1.80
2022-08-14T12:56:33.125Z,2.05
2022-08-14T12:59:42.838Z,1.60
2022-08-14T13:02:55.383Z,1.77
2022-08-14T13:06:01.308Z,2.00
2022-08-14T13:09:11.211Z,2.05
2022-08-14T13:12:33.158Z,1.70
2022-08-14T13:15:40.998Z,1.70
2022-08-14T13:18:47.088Z,2.05
2022-08-14T13:21:58.942Z,1.85
2022-08-14T13:25:15.907Z,2.00
2022-08-14T13:28:30.173Z,2.20
2022-08-14T13:31:40.710Z,2.15
2022-08-14T13:34:52.604Z,2.25
2022-08-14T13:37:58.001Z,2.30
2022-08-14T13:41:06.230Z,2.05
2022-08-14T13:44:13.870Z,2.10
2022-08-14T13:47:20.241Z,2.20
2022-08-14T13:50:25.967Z,2.10
2022-08-14T13:53:33.264Z,2.30
2022-08-14T13:56:42.386Z,2.17
2022-08-14T13:59:51.219Z,1.98
2022-08-14T14:02:57.134Z,2.10
2022-08-14T14:06:04.402Z,1.90
2022-08-14T14:09:12.209Z,2.20
2022-08-14T14:12:37.609Z,2.53
2022-08-14T14:15:57.754Z,2.28
2022-08-14T14:19:09.480Z,2.42
2022-08-14T14:22:44.959Z,2.70
2022-08-14T14:25:51.191Z,2.30
2022-08-14T14:29:04.846Z,2.45
2022-08-14T14:32:11.426Z,2.35
2022-08-14T14:35:32.750Z,2.20
2022-08-14T14:38:44.429Z,2.40
2022-08-14T14:41:56.457Z,2.50
2022-08-14T14:45:15.510Z,2.20
2022-08-14T14:48:20.915Z,2.13
2022-08-14T14:51:33.546Z,2.33
2022-08-14T14:54:39.150Z,2.08
2022-08-14T14:57:45.409Z,2.13
2022-08-14T15:01:00.555Z,2.20
2022-08-14T15:04:19.833Z,2.40
2022-08-14T15:07:26.155Z,2.10
2022-08-14T15:10:38.224Z,2.00
2022-08-14T15:13:52.944Z,2.25
2022-08-14T15:17:00.470Z,2.35
2022-08-14T15:20:09.787Z,2.10
2022-08-14T15:23:23.253Z,2.10
2022-08-14T15:26:31.609Z,2.10
2022-08-14T15:29:43.173Z,2.20
2022-08-14T15:32:50.083Z,2.42
2022-08-14T15:35:55.441Z,2.17
2022-08-14T15:39:05.425Z,2.30
2022-08-14T15:42:14.536Z,2.30
2022-08-14T15:45:21.644Z,2.60
2022-08-14T15:48:29.597Z,1.98
2022-08-14T15:51:35.310Z,2.00
2022-08-14T15:54:47.969Z,1.85
2022-08-14T15:58:03.155Z,1.95
2022-08-14T16:01:43.595Z,1.90
2022-08-14T16:04:51.800Z,1.55
2022-08-14T16:07:57.302Z,1.85
2022-08-14T16:11:07.051Z,1.85
2022-08-14T16:14:12.706Z,2.20
2022-08-14T16:17:26.458Z,2.03
2022-08-14T16:20:44.268Z,2.70
2022-08-14T16:23:52.949Z,2.17
2022-08-14T16:27:00.966Z,2.00
2022-08-14T16:30:12.282Z,1.80
2022-08-14T16:34:00.149Z,1.80
2022-08-14T16:36:59.407Z,1.77
2022-08-14T16:40:06.042Z,1.83
2022-08-14T16:43:17.909Z,1.70
2022-08-14T16:46:24.781Z,1.38
2022-08-14T16:50:03.147Z,1.63
2022-08-14T16:53:00.948Z,1.70
2022-08-14T16:56:23.005Z,1.65
2022-08-14T16:59:30.469Z,1.88
2022-08-14T17:03:03.946Z,1.88
2022-08-14T17:06:25.645Z,2.45
2022-08-14T17:09:43.223Z,1.60
2022-08-14T17:12:48.885Z,1.60
2022-08-14T17:16:10.547Z,1.70
2022-08-14T17:19:40.181Z,1.70
2022-08-14T17:22:52.892Z,1.50
2022-08-14T17:26:01.051Z,1.55
2022-08-14T17:29:12.503Z,1.48
2022-08-14T17:32:28.159Z,1.63
2022-08-14T17:35:57.506Z,1.70
2022-08-14T17:39:07.282Z,1.45
2022-08-14T17:42:14.092Z,1.70
2022-08-14T17:45:27.086Z,2.00
2022-08-14T17:49:16.302Z,1.95
2022-08-14T17:52:07.699Z,1.60
2022-08-14T17:56:02.453Z,1.67
2022-08-14T17:58:42.863Z,1.80
2022-08-14T18:01:49.673Z,1.90
2022-08-14T18:04:55.658Z,2.00
2022-08-14T18:08:32.019Z,2.03
2022-08-14T18:11:45.909Z,2.13
2022-08-14T18:14:53.358Z,1.95
2022-08-14T18:17:59.168Z,1.90
2022-08-14T18:21:40.623Z,2.03
2022-08-14T18:24:31.890Z,2.00
2022-08-14T18:27:41.715Z,1.98
2022-08-14T18:30:58.695Z,1.92
2022-08-14T18:34:31.282Z,2.17
2022-08-14T18:37:38.838Z,2.25
2022-08-14T18:40:44.306Z,2.15
2022-08-14T18:43:59.550Z,2.00
2022-08-14T18:47:26.171Z,2.40
2022-08-14T18:50:32.454Z,2.20
2022-08-14T18:53:56.987Z,2.47
2022-08-14T18:57:05.356Z,1.92
2022-08-14T19:00:52.698Z,2.30
2022-08-14T19:04:01.452Z,2.38
2022-08-14T19:07:17.547Z,2.20
2022-08-14T19:10:37.244Z,2.20
2022-08-14T19:13:44.553Z,2.53
2022-08-14T19:16:54.371Z,2.90
2022-08-14T19:20:08.069Z,2.30
2022-08-14T19:23:21.330Z,2.22
2022-08-14T19:26:36.818Z,2.50
2022-08-14T19:30:24.160Z,2.50
2022-08-14T19:33:51.934Z,2.10
2022-08-14T19:37:05.894Z,2.63
2022-08-14T19:40:19.276Z,2.10
2022-08-14T19:43:55.505Z,2.53
2022-08-14T19:47:01.277Z,2.47
2022-08-14T19:50:30.976Z,2.60
2022-08-14T19:53:51.029Z,2.30
2022-08-14T19:57:02.226Z,2.40
2022-08-14T20:00:29.519Z,2.72
2022-08-14T20:04:00.375Z,2.60
2022-08-14T20:07:09.065Z,2.80
2022-08-14T20:11:11.388Z,2.83
2022-08-14T20:14:04.017Z,2.92
2022-08-14T20:17:19.123Z,2.70
2022-08-14T20:20:32.007Z,2.90
2022-08-14T20:23:38.895Z,3.58
2022-08-14T20:26:47.113Z,2.80
2022-08-14T20:30:33.861Z,3.10
2022-08-14T20:33:47.896Z,3.08
2022-08-14T20:37:04.567Z,3.40
2022-08-14T20:40:23.431Z,3.25
2022-08-14T20:43:53.179Z,4.07
2022-08-14T20:47:01.007Z,3.22
2022-08-14T20:50:16.728Z,3.83
2022-08-14T20:53:35.707Z,3.60
2022-08-14T20:56:44.038Z,3.88
2022-08-14T20:59:53.111Z,3.53
2022-08-14T21:03:00.973Z,3.60
2022-08-14T21:06:19.376Z,3.38
2022-08-14T21:09:43.730Z,3.70
2022-08-14T21:13:26.100Z,3.40
2022-08-14T21:16:30.774Z,3.53
2022-08-14T21:19:43.926Z,3.45
2022-08-14T21:23:00.595Z,3.53
2022-08-14T21:26:08.052Z,3.50
2022-08-14T21:29:14.597Z,3.60
2022-08-14T21:32:34.038Z,3.47
2022-08-14T21:35:46.585Z,3.83
2022-08-14T21:38:52.381Z,3.80
2022-08-14T21:41:59.711Z,4.00
2022-08-14T21:45:09.084Z,4.15
2022-08-14T21:48:16.825Z,3.70
2022-08-14T21:51:53.809Z,4.32
2022-08-14T21:54:51.539Z,4.25
2022-08-14T21:58:51.474Z,4.63
2022-08-14T22:01:23.840Z,5.40
2022-08-14T22:04:34.230Z,4.78
2022-08-14T22:07:42.022Z,5.32
2022-08-14T22:10:51.508Z,4.93
2022-08-14T22:14:02.304Z,4.60
2022-08-14T22:17:23.763Z,4.80
2022-08-14T22:20:29.550Z,4.70
2022-08-14T22:23:36.512Z,4.78
2022-08-14T22:26:44.904Z,4.50
2022-08-14T22:29:54.932Z,5.13
2022-08-14T22:33:05.918Z,4.88
2022-08-14T22:36:42.349Z,4.95
2022-08-14T22:40:51.735Z,4.43
2022-08-14T22:43:19.742Z,4.82
2022-08-14T22:46:25.652Z,4.82
2022-08-14T22:50:31.743Z,4.38
2022-08-14T22:52:59.974Z,4.63
2022-08-14T22:56:07.225Z,4.47
2022-08-14T22:59:36.888Z,4.82
2022-08-14T23:02:46.749Z,4.90
2022-08-14T23:05:54.501Z,4.72
2022-08-14T23:09:02.087Z,5.15
2022-08-14T23:12:29.641Z,4.72
2022-08-14T23:15:37.433Z,4.38
2022-08-14T23:18:44.510Z,4.95
2022-08-14T23:21:53.005Z,4.95
2022-08-14T23:24:59.954Z,5.22
2022-08-14T23:28:06.661Z,5.25
2022-08-14T23:31:36.062Z,4.88
2022-08-14T23:34:48.216Z,5.25
2022-08-14T23:37:58.422Z,4.88
2022-08-14T23:41:12.746Z,4.75
2022-08-14T23:44:24.583Z,4.78
2022-08-14T23:47:51.989Z,5.10
2022-08-14T23:51:00.080Z,5.13
2022-08-14T23:54:06.179Z,5.05
2022-08-14T23:57:31.162Z,5.50
